sensor_id;sensor_type;location;lat;lon;timestamp;pressure;altitude;pressure_sealevel;temperature;humidity
7052;BME280;3567;52.444;13.556;2023-12-04T00:01:46;101737.09;;;-6.23;100.00
7052;BME280;3567;52.444;13.556;2023-12-04T00:04:12;101745.31;;;-6.29;100.00
7052;BME280;3567;52.444;13.556;2023-12-04T00:06:37;101741.03;;;-6.30;100.00
7052;BME280;3567;52.444;13.556;2023-12-04T00:09:03;101744.19;;;-6.25;100.00
7052;BME280;3567;52.444;13.556;2023-12-04T00:11:28;101734.69;;;-6.26;100.00
7052;BME280;3567;52.444;13.556;2023-12-04T00:13:53;101727.81;;;-6.27;100.00
7052;BME280;3567;52.444;13.556;2023-12-04T00:16:19;101731.31;;;-6.28;100.00
7052;BME280;3567;52.444;13.556;2023-12-04T00:18:44;101727.16;;;-6.31;100.00
7052;BME280;3567;52.444;13.556;2023-12-04T00:21:09;101726.44;;;-6.33;100.00
7052;BME280;3567;52.444;13.556;2023-12-04T00:23:35;101728.38;;;-6.37;100.00
7052;BME280;3567;52.444;13.556;2023-12-04T00:26:00;101725.78;;;-6.37;100.00
7052;BME280;3567;52.444;13.556;2023-12-04T00:28:25;101723.53;;;-6.43;100.00
7052;BME280;3567;52.444;13.556;2023-12-04T00:30:51;101721.13;;;-6.46;100.00
7052;BME280;3567;52.444;13.556;2023-12-04T00:33:16;101719.72;;;-6.51;100.00
7052;BME280;3567;52.444;13.556;2023-12-04T00:35:41;101725.03;;;-6.53;100.00
7052;BME280;3567;52.444;13.556;2023-12-04T00:38:07;101726.53;;;-6.49;100.00
7052;BME280;3567;52.444;13.556;2023-12-04T00:40:38;101730.03;;;-6.50;100.00
7052;BME280;3567;52.444;13.556;2023-12-04T00:43:03;101742.34;;;-6.52;100.00
7052;BME280;3567;52.444;13.556;2023-12-04T00:45:29;101739.94;;;-6.55;100.00
7052;BME280;3567;52.444;13.556;2023-12-04T00:47:54;101745.44;;;-6.60;100.00
7052;BME280;3567;52.444;13.556;2023-12-04T00:50:19;101746.44;;;-6.62;100.00
7052;BME280;3567;52.444;13.556;2023-12-04T00:52:45;101744.94;;;-6.66;100.00
7052;BME280;3567;52.444;13.556;2023-12-04T00:55:10;101758.06;;;-6.68;100.00
7052;BME280;3567;52.444;13.556;2023-12-04T00:57:36;101750.34;;;-6.69;100.00
7052;BME280;3567;52.444;13.556;2023-12-04T01:00:02;101751.09;;;-6.67;100.00
7052;BME280;3567;52.444;13.556;2023-12-04T01:02:27;101746.25;;;-6.59;100.00
7052;BME280;3567;52.444;13.556;2023-12-04T01:04:53;101747.09;;;-6.58;100.00
7052;BME280;3567;52.444;13.556;2023-12-04T01:07:18;101752.69;;;-6.65;100.00
7052;BME280;3567;52.444;13.556;2023-12-04T01:09:43;101744.94;;;-6.66;100.00
7052;BME280;3567;52.444;13.556;2023-12-04T01:12:09;101743.53;;;-6.72;100.00
7052;BME280;3567;52.444;13.556;2023-12-04T01:14:35;101743.09;;;-6.78;100.00
7052;BME280;3567;52.444;13.556;2023-12-04T01:17:03;101739.75;;;-6.80;100.00
7052;BME280;3567;52.444;13.556;2023-12-04T01:19:28;101738.91;;;-6.81;100.00
7052;BME280;3567;52.444;13.556;2023-12-04T01:21:54;101738.97;;;-6.82;100.00
7052;BME280;3567;52.444;13.556;2023-12-04T01:24:19;101733.97;;;-6.86;100.00
7052;BME280;3567;52.444;13.556;2023-12-04T01:26:45;101732.31;;;-6.87;100.00
7052;BME280;3567;52.444;13.556;2023-12-04T01:29:10;101723.72;;;-6.89;100.00
7052;BME280;3567;52.444;13.556;2023-12-04T01:31:35;101724.09;;;-6.95;100.00
7052;BME280;3567;52.444;13.556;2023-12-04T01:34:00;101725.47;;;-7.03;100.00
7052;BME280;3567;52.444;13.556;2023-12-04T01:36:26;101722.28;;;-7.08;100.00
7052;BME280;3567;52.444;13.556;2023-12-04T01:38:51;101719.06;;;-7.12;100.00
7052;BME280;3567;52.444;13.556;2023-12-04T01:41:17;101704.38;;;-7.13;100.00
7052;BME280;3567;52.444;13.556;2023-12-04T01:43:42;101711.41;;;-7.15;100.00
7052;BME280;3567;52.444;13.556;2023-12-04T01:46:07;101703.69;;;-7.17;100.00
7052;BME280;3567;52.444;13.556;2023-12-04T01:48:33;101702.84;;;-7.17;100.00
7052;BME280;3567;52.444;13.556;2023-12-04T01:51:00;101705.63;;;-7.20;100.00
7052;BME280;3567;52.444;13.556;2023-12-04T01:53:28;101700.53;;;-7.22;100.00
7052;BME280;3567;52.444;13.556;2023-12-04T01:55:53;101703.84;;;-7.20;100.00
7052;BME280;3567;52.444;13.556;2023-12-04T01:58:19;101700.34;;;-7.19;100.00
7052;BME280;3567;52.444;13.556;2023-12-04T02:00:44;101700.06;;;-7.14;100.00
7052;BME280;3567;52.444;13.556;2023-12-04T02:03:10;101708.38;;;-7.07;100.00
7052;BME280;3567;52.444;13.556;2023-12-04T02:05:36;101700.28;;;-7.03;100.00
7052;BME280;3567;52.444;13.556;2023-12-04T02:08:02;101693.22;;;-7.01;100.00
7052;BME280;3567;52.444;13.556;2023-12-04T02:10:28;101693.78;;;-6.96;100.00
7052;BME280;3567;52.444;13.556;2023-12-04T02:12:54;101696.00;;;-6.90;100.00
7052;BME280;3567;52.444;13.556;2023-12-04T02:15:19;101685.88;;;-6.80;100.00
7052;BME280;3567;52.444;13.556;2023-12-04T02:17:45;101684.09;;;-6.65;100.00
7052;BME280;3567;52.444;13.556;2023-12-04T02:20:13;101681.28;;;-6.48;100.00
7052;BME280;3567;52.444;13.556;2023-12-04T02:22:39;101681.34;;;-6.35;100.00
7052;BME280;3567;52.444;13.556;2023-12-04T02:25:06;101667.84;;;-6.27;100.00
7052;BME280;3567;52.444;13.556;2023-12-04T02:27:38;101670.16;;;-6.23;100.00
7052;BME280;3567;52.444;13.556;2023-12-04T02:30:06;101663.91;;;-6.20;100.00
7052;BME280;3567;52.444;13.556;2023-12-04T02:32:35;101665.38;;;-6.16;100.00
7052;BME280;3567;52.444;13.556;2023-12-04T02:35:04;101666.88;;;-6.12;100.00
7052;BME280;3567;52.444;13.556;2023-12-04T02:37:31;101672.63;;;-6.07;100.00
7052;BME280;3567;52.444;13.556;2023-12-04T02:39:58;101675.03;;;-6.04;100.00
7052;BME280;3567;52.444;13.556;2023-12-04T02:42:24;101667.84;;;-6.00;100.00
7052;BME280;3567;52.444;13.556;2023-12-04T02:44:52;101665.03;;;-5.97;100.00
7052;BME280;3567;52.444;13.556;2023-12-04T02:47:18;101653.69;;;-5.96;100.00
7052;BME280;3567;52.444;13.556;2023-12-04T02:49:44;101649.19;;;-5.94;100.00
7052;BME280;3567;52.444;13.556;2023-12-04T02:52:09;101656.91;;;-5.93;100.00
7052;BME280;3567;52.444;13.556;2023-12-04T02:54:35;101650.03;;;-5.94;100.00
7052;BME280;3567;52.444;13.556;2023-12-04T02:57:00;101649.91;;;-5.92;100.00
7052;BME280;3567;52.444;13.556;2023-12-04T02:59:26;101644.59;;;-5.91;100.00
7052;BME280;3567;52.444;13.556;2023-12-04T03:01:51;101645.44;;;-5.90;100.00
7052;BME280;3567;52.444;13.556;2023-12-04T03:04:16;101645.31;;;-5.89;100.00
7052;BME280;3567;52.444;13.556;2023-12-04T03:06:42;101640.00;;;-5.87;100.00
7052;BME280;3567;52.444;13.556;2023-12-04T03:09:07;101641.66;;;-5.86;100.00
7052;BME280;3567;52.444;13.556;2023-12-04T03:11:33;101637.19;;;-5.84;100.00
7052;BME280;3567;52.444;13.556;2023-12-04T03:14:00;101638.03;;;-5.84;100.00
7052;BME280;3567;52.444;13.556;2023-12-04T03:16:25;101637.09;;;-5.83;100.00
7052;BME280;3567;52.444;13.556;2023-12-04T03:18:51;101639.59;;;-5.81;100.00
7052;BME280;3567;52.444;13.556;2023-12-04T03:21:16;101633.34;;;-5.78;100.00
7052;BME280;3567;52.444;13.556;2023-12-04T03:23:41;101627.19;;;-5.77;100.00
7052;BME280;3567;52.444;13.556;2023-12-04T03:26:07;101619.34;;;-5.77;100.00
7052;BME280;3567;52.444;13.556;2023-12-04T03:28:32;101626.25;;;-5.76;100.00
7052;BME280;3567;52.444;13.556;2023-12-04T03:30:57;101624.47;;;-5.76;100.00
7052;BME280;3567;52.444;13.556;2023-12-04T03:33:23;101626.88;;;-5.73;100.00
7052;BME280;3567;52.444;13.556;2023-12-04T03:35:48;101617.28;;;-5.72;100.00
7052;BME280;3567;52.444;13.556;2023-12-04T03:38:14;101614.56;;;-5.71;100.00
7052;BME280;3567;52.444;13.556;2023-12-04T03:40:39;101613.72;;;-5.71;100.00
7052;BME280;3567;52.444;13.556;2023-12-04T03:43:04;101622.31;;;-5.69;100.00
7052;BME280;3567;52.444;13.556;2023-12-04T03:45:30;101620.63;;;-5.70;100.00
7052;BME280;3567;52.444;13.556;2023-12-04T03:47:55;101627.31;;;-5.66;100.00
7052;BME280;3567;52.444;13.556;2023-12-04T03:50:20;101612.47;;;-5.66;100.00
7052;BME280;3567;52.444;13.556;2023-12-04T03:52:46;101612.19;;;-5.61;100.00
7052;BME280;3567;52.444;13.556;2023-12-04T03:55:11;101609.47;;;-5.60;100.00
7052;BME280;3567;52.444;13.556;2023-12-04T03:57:36;101600.59;;;-5.57;100.00
7052;BME280;3567;52.444;13.556;2023-12-04T04:00:02;101591.63;;;-5.53;100.00
7052;BME280;3567;52.444;13.556;2023-12-04T04:02:29;101588.78;;;-5.50;100.00
7052;BME280;3567;52.444;13.556;2023-12-04T04:04:54;101589.31;;;-5.45;100.00
7052;BME280;3567;52.444;13.556;2023-12-04T04:07:20;101584.75;;;-5.41;100.00
7052;BME280;3567;52.444;13.556;2023-12-04T04:09:45;101582.75;;;-5.38;100.00
7052;BME280;3567;52.444;13.556;2023-12-04T04:12:11;101579.94;;;-5.35;100.00
7052;BME280;3567;52.444;13.556;2023-12-04T04:14:36;101576.38;;;-5.34;100.00
7052;BME280;3567;52.444;13.556;2023-12-04T04:17:02;101581.41;;;-5.31;100.00
7052;BME280;3567;52.444;13.556;2023-12-04T04:19:27;101588.16;;;-5.28;100.00
7052;BME280;3567;52.444;13.556;2023-12-04T04:21:53;101585.56;;;-5.28;100.00
7052;BME280;3567;52.444;13.556;2023-12-04T04:24:18;101596.84;;;-5.28;100.00
7052;BME280;3567;52.444;13.556;2023-12-04T04:26:43;101596.00;;;-5.28;100.00
7052;BME280;3567;52.444;13.556;2023-12-04T04:29:09;101594.13;;;-5.26;100.00
7052;BME280;3567;52.444;13.556;2023-12-04T04:31:35;101597.59;;;-5.25;100.00
7052;BME280;3567;52.444;13.556;2023-12-04T04:34:00;101596.63;;;-5.24;100.00
7052;BME280;3567;52.444;13.556;2023-12-04T04:36:26;101591.41;;;-5.24;100.00
7052;BME280;3567;52.444;13.556;2023-12-04T04:38:51;101586.19;;;-5.24;100.00
7052;BME280;3567;52.444;13.556;2023-12-04T04:41:16;101588.09;;;-5.27;100.00
7052;BME280;3567;52.444;13.556;2023-12-04T04:43:42;101589.75;;;-5.25;100.00
7052;BME280;3567;52.444;13.556;2023-12-04T04:46:07;101588.09;;;-5.27;100.00
7052;BME280;3567;52.444;13.556;2023-12-04T04:48:33;101585.56;;;-5.28;100.00
7052;BME280;3567;52.444;13.556;2023-12-04T04:50:58;101575.09;;;-5.28;100.00
7052;BME280;3567;52.444;13.556;2023-12-04T04:53:23;101582.22;;;-5.30;100.00
7052;BME280;3567;52.444;13.556;2023-12-04T04:55:49;101579.63;;;-5.30;100.00
7052;BME280;3567;52.444;13.556;2023-12-04T04:58:15;101580.56;;;-5.31;100.00
7052;BME280;3567;52.444;13.556;2023-12-04T05:00:40;101573.69;;;-5.32;100.00
7052;BME280;3567;52.444;13.556;2023-12-04T05:03:05;101575.41;;;-5.33;100.00
7052;BME280;3567;52.444;13.556;2023-12-04T05:05:31;101578.03;;;-5.33;100.00
7052;BME280;3567;52.444;13.556;2023-12-04T05:07:56;101566.66;;;-5.32;100.00
7052;BME280;3567;52.444;13.556;2023-12-04T05:10:21;101564.06;;;-5.32;100.00
7052;BME280;3567;52.444;13.556;2023-12-04T05:12:47;101564.06;;;-5.32;100.00
7052;BME280;3567;52.444;13.556;2023-12-04T05:15:12;101564.06;;;-5.32;100.00
7052;BME280;3567;52.444;13.556;2023-12-04T05:17:37;101558.84;;;-5.32;100.00
7052;BME280;3567;52.444;13.556;2023-12-04T05:20:03;101553.38;;;-5.29;100.00
7052;BME280;3567;52.444;13.556;2023-12-04T05:22:29;101555.28;;;-5.31;100.00
7052;BME280;3567;52.444;13.556;2023-12-04T05:24:54;101552.66;;;-5.31;100.00
7052;BME280;3567;52.444;13.556;2023-12-04T05:27:19;101550.88;;;-5.30;100.00
7052;BME280;3567;52.444;13.556;2023-12-04T05:29:45;101548.16;;;-5.29;100.00
7052;BME280;3567;52.444;13.556;2023-12-04T05:32:10;101548.16;;;-5.29;100.00
7052;BME280;3567;52.444;13.556;2023-12-04T05:34:35;101543.78;;;-5.28;100.00
7052;BME280;3567;52.444;13.556;2023-12-04T05:37:00;101535.09;;;-5.29;100.00
7052;BME280;3567;52.444;13.556;2023-12-04T05:39:26;101533.44;;;-5.30;100.00
7052;BME280;3567;52.444;13.556;2023-12-04T05:41:51;101534.28;;;-5.29;100.00
7052;BME280;3567;52.444;13.556;2023-12-04T05:44:16;101531.53;;;-5.28;100.00
7052;BME280;3567;52.444;13.556;2023-12-04T05:46:42;101530.63;;;-5.27;100.00
7052;BME280;3567;52.444;13.556;2023-12-04T05:49:07;101529.81;;;-5.27;100.00
7052;BME280;3567;52.444;13.556;2023-12-04T05:51:32;101530.50;;;-5.25;100.00
7052;BME280;3567;52.444;13.556;2023-12-04T05:53:58;101537.50;;;-5.25;100.00
7052;BME280;3567;52.444;13.556;2023-12-04T05:56:23;101529.69;;;-5.25;100.00
7052;BME280;3567;52.444;13.556;2023-12-04T05:58:48;101533.13;;;-5.25;100.00
7052;BME280;3567;52.444;13.556;2023-12-04T06:01:14;101526.13;;;-5.24;100.00
7052;BME280;3567;52.444;13.556;2023-12-04T06:03:40;101531.22;;;-5.23;100.00
7052;BME280;3567;52.444;13.556;2023-12-04T06:06:06;101529.38;;;-5.21;100.00
7052;BME280;3567;52.444;13.556;2023-12-04T06:08:31;101531.75;;;-5.18;100.00
7052;BME280;3567;52.444;13.556;2023-12-04T06:10:56;101530.59;;;-5.14;100.00
7052;BME280;3567;52.444;13.556;2023-12-04T06:13:23;101529.56;;;-5.11;100.00
7052;BME280;3567;52.444;13.556;2023-12-04T06:15:48;101527.56;;;-5.08;100.00
7052;BME280;3567;52.444;13.556;2023-12-04T06:18:13;101523.06;;;-5.06;100.00
7052;BME280;3567;52.444;13.556;2023-12-04T06:20:39;101528.69;;;-4.99;100.00
7052;BME280;3567;52.444;13.556;2023-12-04T06:23:04;101521.56;;;-4.97;100.00
7052;BME280;3567;52.444;13.556;2023-12-04T06:25:30;101518.00;;;-4.96;100.00
7052;BME280;3567;52.444;13.556;2023-12-04T06:27:55;101516.97;;;-4.93;100.00
7052;BME280;3567;52.444;13.556;2023-12-04T06:30:21;101519.25;;;-4.89;100.00
7052;BME280;3567;52.444;13.556;2023-12-04T06:32:47;101511.28;;;-4.87;100.00
7052;BME280;3567;52.444;13.556;2023-12-04T06:35:13;101518.19;;;-4.86;100.00
7052;BME280;3567;52.444;13.556;2023-12-04T06:37:39;101527.59;;;-4.84;100.00
7052;BME280;3567;52.444;13.556;2023-12-04T06:40:07;101520.47;;;-4.82;100.00
7052;BME280;3567;52.444;13.556;2023-12-04T06:42:35;101522.06;;;-4.79;100.00
7052;BME280;3567;52.444;13.556;2023-12-04T06:45:00;101518.38;;;-4.77;100.00
7052;BME280;3567;52.444;13.556;2023-12-04T06:47:27;101517.31;;;-4.74;100.00
7052;BME280;3567;52.444;13.556;2023-12-04T06:49:56;101514.59;;;-4.72;100.00
7052;BME280;3567;52.444;13.556;2023-12-04T06:52:21;101513.44;;;-4.68;100.00
7052;BME280;3567;52.444;13.556;2023-12-04T06:54:46;101509.03;;;-4.68;100.00
7052;BME280;3567;52.444;13.556;2023-12-04T06:57:12;101517.72;;;-4.67;100.00
7052;BME280;3567;52.444;13.556;2023-12-04T06:59:41;101508.81;;;-4.65;100.00
7052;BME280;3567;52.444;13.556;2023-12-04T07:02:06;101500.00;;;-4.64;100.00
7052;BME280;3567;52.444;13.556;2023-12-04T07:04:31;101495.66;;;-4.63;100.00
7052;BME280;3567;52.444;13.556;2023-12-04T07:06:57;101495.41;;;-4.60;100.00
7052;BME280;3567;52.444;13.556;2023-12-04T07:09:23;101486.41;;;-4.56;100.00
7052;BME280;3567;52.444;13.556;2023-12-04T07:11:48;101485.22;;;-4.52;100.00
7052;BME280;3567;52.444;13.556;2023-12-04T07:14:13;101484.88;;;-4.48;100.00
7052;BME280;3567;52.444;13.556;2023-12-04T07:16:42;101480.13;;;-4.42;100.00
7052;BME280;3567;52.444;13.556;2023-12-04T07:19:09;101479.94;;;-4.39;100.00
7052;BME280;3567;52.444;13.556;2023-12-04T07:21:35;101477.69;;;-4.33;100.00
7052;BME280;3567;52.444;13.556;2023-12-04T07:24:00;101476.50;;;-4.29;100.00
7052;BME280;3567;52.444;13.556;2023-12-04T07:26:26;101478.16;;;-4.28;100.00
7052;BME280;3567;52.444;13.556;2023-12-04T07:28:51;101471.91;;;-4.25;100.00
7052;BME280;3567;52.444;13.556;2023-12-04T07:31:17;101468.06;;;-4.21;100.00
7052;BME280;3567;52.444;13.556;2023-12-04T07:33:43;101472.88;;;-4.15;100.00
7052;BME280;3567;52.444;13.556;2023-12-04T07:36:08;101474.19;;;-4.09;100.00
7052;BME280;3567;52.444;13.556;2023-12-04T07:38:34;101469.44;;;-4.04;100.00
7052;BME280;3567;52.444;13.556;2023-12-04T07:40:59;101472.56;;;-3.99;100.00
7052;BME280;3567;52.444;13.556;2023-12-04T07:43:24;101470.53;;;-3.96;100.00
7052;BME280;3567;52.444;13.556;2023-12-04T07:45:50;101478.84;;;-3.90;100.00
7052;BME280;3567;52.444;13.556;2023-12-04T07:48:15;101473.16;;;-3.84;100.00
7052;BME280;3567;52.444;13.556;2023-12-04T07:50:42;101479.69;;;-3.79;100.00
7052;BME280;3567;52.444;13.556;2023-12-04T07:53:07;101483.88;;;-3.76;100.00
7052;BME280;3567;52.444;13.556;2023-12-04T07:55:37;101488.66;;;-3.70;100.00
7052;BME280;3567;52.444;13.556;2023-12-04T07:58:02;101477.69;;;-3.64;100.00
7052;BME280;3567;52.444;13.556;2023-12-04T08:00:27;101473.91;;;-3.60;100.00
7052;BME280;3567;52.444;13.556;2023-12-04T08:02:53;101473.28;;;-3.52;100.00
7052;BME280;3567;52.444;13.556;2023-12-04T08:05:18;101464.97;;;-3.46;100.00
7052;BME280;3567;52.444;13.556;2023-12-04T08:07:44;101470.66;;;-3.41;100.00
7052;BME280;3567;52.444;13.556;2023-12-04T08:10:10;101467.00;;;-3.38;100.00
7052;BME280;3567;52.444;13.556;2023-12-04T08:12:35;101467.69;;;-3.36;100.00
7052;BME280;3567;52.444;13.556;2023-12-04T08:15:00;101473.41;;;-3.31;100.00
7052;BME280;3567;52.444;13.556;2023-12-04T08:17:27;101460.22;;;-3.30;100.00
7052;BME280;3567;52.444;13.556;2023-12-04T08:19:52;101459.72;;;-3.24;100.00
7052;BME280;3567;52.444;13.556;2023-12-04T08:22:17;101468.53;;;-3.25;100.00
7052;BME280;3567;52.444;13.556;2023-12-04T08:24:43;101466.34;;;-3.20;100.00
7052;BME280;3567;52.444;13.556;2023-12-04T08:27:08;101466.97;;;-3.16;100.00
7052;BME280;3567;52.444;13.556;2023-12-04T08:29:33;101469.91;;;-3.09;100.00
7052;BME280;3567;52.444;13.556;2023-12-04T08:31:59;101470.38;;;-3.04;100.00
7052;BME280;3567;52.444;13.556;2023-12-04T08:34:25;101467.53;;;-3.01;100.00
7052;BME280;3567;52.444;13.556;2023-12-04T08:36:50;101463.00;;;-2.99;100.00
7052;BME280;3567;52.444;13.556;2023-12-04T08:39:16;101471.31;;;-2.94;100.00
7052;BME280;3567;52.444;13.556;2023-12-04T08:41:45;101469.28;;;-2.91;100.00
7052;BME280;3567;52.444;13.556;2023-12-04T08:44:10;101469.16;;;-2.89;100.00
7052;BME280;3567;52.444;13.556;2023-12-04T08:46:36;101465.84;;;-2.91;100.00
7052;BME280;3567;52.444;13.556;2023-12-04T08:49:02;101463.09;;;-2.90;100.00
7052;BME280;3567;52.444;13.556;2023-12-04T08:51:27;101461.06;;;-2.86;100.00
7052;BME280;3567;52.444;13.556;2023-12-04T08:53:52;101457.47;;;-2.85;100.00
7052;BME280;3567;52.444;13.556;2023-12-04T08:56:18;101461.75;;;-2.84;100.00
7052;BME280;3567;52.444;13.556;2023-12-04T08:58:44;101458.91;;;-2.81;100.00
7052;BME280;3567;52.444;13.556;2023-12-04T09:01:09;101455.66;;;-2.73;100.00
7052;BME280;3567;52.444;13.556;2023-12-04T09:03:35;101460.75;;;-2.72;100.00
7052;BME280;3567;52.444;13.556;2023-12-04T09:06:01;101453.34;;;-2.67;100.00
7052;BME280;3567;52.444;13.556;2023-12-04T09:08:26;101462.53;;;-2.61;100.00
7052;BME280;3567;52.444;13.556;2023-12-04T09:10:52;101462.88;;;-2.54;100.00
7052;BME280;3567;52.444;13.556;2023-12-04T09:13:19;101463.31;;;-2.49;100.00
7052;BME280;3567;52.444;13.556;2023-12-04T09:15:44;101465.16;;;-2.40;100.00
7052;BME280;3567;52.444;13.556;2023-12-04T09:18:09;101467.31;;;-2.34;100.00
7052;BME280;3567;52.444;13.556;2023-12-04T09:20:35;101463.00;;;-2.35;100.00
7052;BME280;3567;52.444;13.556;2023-12-04T09:23:01;101468.25;;;-2.35;100.00
7052;BME280;3567;52.444;13.556;2023-12-04T09:25:26;101461.19;;;-2.34;100.00
7052;BME280;3567;52.444;13.556;2023-12-04T09:27:51;101454.19;;;-2.34;100.00
7052;BME280;3567;52.444;13.556;2023-12-04T09:30:17;101455.84;;;-2.33;100.00
7052;BME280;3567;52.444;13.556;2023-12-04T09:32:43;101464.19;;;-2.28;100.00
7052;BME280;3567;52.444;13.556;2023-12-04T09:35:09;101458.66;;;-2.25;100.00
7052;BME280;3567;52.444;13.556;2023-12-04T09:37:34;101454.97;;;-2.22;100.00
7052;BME280;3567;52.444;13.556;2023-12-04T09:40:00;101450.25;;;-2.19;100.00
7052;BME280;3567;52.444;13.556;2023-12-04T09:42:25;101450.25;;;-2.19;100.00
7052;BME280;3567;52.444;13.556;2023-12-04T09:44:52;101451.53;;;-2.13;100.00
7052;BME280;3567;52.444;13.556;2023-12-04T09:47:18;101452.72;;;-2.06;100.00
7052;BME280;3567;52.444;13.556;2023-12-04T09:49:45;101448.97;;;-2.03;100.00
7052;BME280;3567;52.444;13.556;2023-12-04T09:52:11;101453.28;;;-2.02;100.00
7052;BME280;3567;52.444;13.556;2023-12-04T09:54:37;101453.84;;;-1.99;100.00
7052;BME280;3567;52.444;13.556;2023-12-04T09:57:04;101443.09;;;-1.96;100.00
7052;BME280;3567;52.444;13.556;2023-12-04T09:59:30;101447.00;;;-1.90;100.00
7052;BME280;3567;52.444;13.556;2023-12-04T10:01:56;101441.81;;;-1.80;100.00
7052;BME280;3567;52.444;13.556;2023-12-04T10:04:22;101439.91;;;-1.69;100.00
7052;BME280;3567;52.444;13.556;2023-12-04T10:06:50;101431.06;;;-1.68;100.00
7052;BME280;3567;52.444;13.556;2023-12-04T10:09:17;101430.81;;;-1.65;100.00
7052;BME280;3567;52.444;13.556;2023-12-04T10:11:44;101427.34;;;-1.65;100.00
7052;BME280;3567;52.444;13.556;2023-12-04T10:14:15;101428.06;;;-1.63;100.00
7052;BME280;3567;52.444;13.556;2023-12-04T10:16:42;101428.75;;;-1.61;100.00
7052;BME280;3567;52.444;13.556;2023-12-04T10:19:34;101423.09;;;-1.56;100.00
7052;BME280;3567;52.444;13.556;2023-12-04T10:21:59;101420.22;;;-1.53;100.00
7052;BME280;3567;52.444;13.556;2023-12-04T10:26:55;101423.53;;;-1.51;100.00
7052;BME280;3567;52.444;13.556;2023-12-04T10:29:22;101417.44;;;-1.52;100.00
7052;BME280;3567;52.444;13.556;2023-12-04T10:31:47;101408.59;;;-1.51;100.00
7052;BME280;3567;52.444;13.556;2023-12-04T10:34:15;101408.78;;;-1.43;100.00
7052;BME280;3567;52.444;13.556;2023-12-04T10:36:41;101403.13;;;-1.38;100.00
7052;BME280;3567;52.444;13.556;2023-12-04T10:39:06;101394.25;;;-1.37;100.00
7052;BME280;3567;52.444;13.556;2023-12-04T10:41:32;101392.16;;;-1.34;100.00
7052;BME280;3567;52.444;13.556;2023-12-04T10:43:57;101388.16;;;-1.28;100.00
7052;BME280;3567;52.444;13.556;2023-12-04T10:46:27;101386.13;;;-1.24;100.00
7052;BME280;3567;52.444;13.556;2023-12-04T10:48:53;101379.63;;;-1.20;100.00
7052;BME280;3567;52.444;13.556;2023-12-04T10:51:19;101380.88;;;-1.15;100.00
7052;BME280;3567;52.444;13.556;2023-12-04T10:53:47;101377.56;;;-1.07;100.00
7052;BME280;3567;52.444;13.556;2023-12-04T10:56:30;101374.25;;;-0.99;100.00
7052;BME280;3567;52.444;13.556;2023-12-04T10:58:57;101373.69;;;-0.93;100.00
7052;BME280;3567;52.444;13.556;2023-12-04T11:01:25;101372.47;;;-0.89;100.00
7052;BME280;3567;52.444;13.556;2023-12-04T11:03:56;101359.56;;;-0.83;100.00
7052;BME280;3567;52.444;13.556;2023-12-04T11:06:24;101352.09;;;-0.87;99.96
7052;BME280;3567;52.444;13.556;2023-12-04T11:08:52;101350.44;;;-0.88;100.00
7052;BME280;3567;52.444;13.556;2023-12-04T11:11:27;101342.28;;;-0.85;100.00
7052;BME280;3567;52.444;13.556;2023-12-04T11:13:59;101343.94;;;-0.84;100.00
7052;BME280;3567;52.444;13.556;2023-12-04T11:16:47;101347.81;;;-0.88;99.21
7052;BME280;3567;52.444;13.556;2023-12-04T11:21:47;101336.31;;;-0.87;100.00
7052;BME280;3567;52.444;13.556;2023-12-04T11:24:15;101336.06;;;-0.84;99.05
7052;BME280;3567;52.444;13.556;2023-12-04T11:26:41;101327.03;;;-0.82;99.53
7052;BME280;3567;52.444;13.556;2023-12-04T11:29:08;101334.50;;;-0.77;99.82
7052;BME280;3567;52.444;13.556;2023-12-04T11:31:36;101329.25;;;-0.77;99.20
7052;BME280;3567;52.444;13.556;2023-12-04T11:34:02;101334.38;;;-0.75;99.58
7052;BME280;3567;52.444;13.556;2023-12-04T11:36:28;101331.63;;;-0.74;99.67
7052;BME280;3567;52.444;13.556;2023-12-04T11:38:53;101325.78;;;-0.68;99.40
7052;BME280;3567;52.444;13.556;2023-12-04T11:41:21;101329.09;;;-0.66;98.58
7052;BME280;3567;52.444;13.556;2023-12-04T11:43:47;101326.19;;;-0.63;98.83
7052;BME280;3567;52.444;13.556;2023-12-04T11:46:14;101319.38;;;-0.56;99.24
7052;BME280;3567;52.444;13.556;2023-12-04T11:48:47;101320.78;;;-0.51;99.07
7052;BME280;3567;52.444;13.556;2023-12-04T11:51:15;101308.00;;;-0.37;98.72
7052;BME280;3567;52.444;13.556;2023-12-04T11:54:00;101311.53;;;-0.28;99.35
7052;BME280;3567;52.444;13.556;2023-12-04T11:56:25;101310.97;;;-0.22;98.47
7052;BME280;3567;52.444;13.556;2023-12-04T11:58:50;101307.66;;;-0.24;98.35
7052;BME280;3567;52.444;13.556;2023-12-04T12:01:20;101308.50;;;-0.23;99.00
7052;BME280;3567;52.444;13.556;2023-12-04T12:03:50;101300.59;;;-0.23;98.09
7052;BME280;3567;52.444;13.556;2023-12-04T12:06:16;101302.16;;;-0.31;98.06
7052;BME280;3567;52.444;13.556;2023-12-04T12:08:41;101300.63;;;-0.33;97.74
7052;BME280;3567;52.444;13.556;2023-12-04T12:11:07;101291.91;;;-0.34;98.10
7052;BME280;3567;52.444;13.556;2023-12-04T12:13:33;101286.78;;;-0.35;97.90
7052;BME280;3567;52.444;13.556;2023-12-04T12:15:58;101294.38;;;-0.32;97.96
7052;BME280;3567;52.444;13.556;2023-12-04T12:18:24;101295.78;;;-0.38;96.85
7052;BME280;3567;52.444;13.556;2023-12-04T12:20:49;101292.75;;;-0.43;97.92
7052;BME280;3567;52.444;13.556;2023-12-04T12:23:15;101277.69;;;-0.50;97.56
7052;BME280;3567;52.444;13.556;2023-12-04T12:25:40;101283.22;;;-0.54;97.79
7052;BME280;3567;52.444;13.556;2023-12-04T12:32:20;101271.34;;;-0.58;97.88
7052;BME280;3567;52.444;13.556;2023-12-04T12:34:45;101267.88;;;-0.58;98.90
7052;BME280;3567;52.444;13.556;2023-12-04T12:37:11;101265.09;;;-0.57;98.25
7052;BME280;3567;52.444;13.556;2023-12-04T12:39:37;101262.31;;;-0.55;99.00
7052;BME280;3567;52.444;13.556;2023-12-04T12:42:02;101253.84;;;-0.49;98.94
7052;BME280;3567;52.444;13.556;2023-12-04T12:44:39;101254.13;;;-0.42;98.99
7052;BME280;3567;52.444;13.556;2023-12-04T12:47:08;101256.44;;;-0.39;98.27
7052;BME280;3567;52.444;13.556;2023-12-04T12:49:34;101249.53;;;-0.40;97.46
7052;BME280;3567;52.444;13.556;2023-12-04T12:52:01;101252.44;;;-0.43;98.81
7052;BME280;3567;52.444;13.556;2023-12-04T12:54:26;101242.63;;;-0.41;99.18